Time;durP1;ratioP1;P1;durP2;ratioP2;P2;SDS_P1;SDS_P2;PMS_P1;PMS_P2;Temp;Humidity;BMP_temperature;BMP_pressure;BME280_temperature;BME280_humidity;BME280_pressure;Samples;Min_cycle;Max_cycle;Signal;HPM_P1;HPM_P2
2022/08/13 00:02:20;;;;;;;7.60;5.83;;;;;;;22.51;72.86;100396.70;1665874;83;21649;-67
2022/08/13 00:04:59;;;;;;;6.75;6.25;;;;;;;22.45;73.31;100386.91;1693923;83;21060;-66
2022/08/13 00:07:24;;;;;;;10.90;5.70;;;;;;;22.42;73.15;100374.41;1673069;81;21210;-67
2022/08/13 00:09:51;;;;;;;5.17;4.75;;;;;;;22.38;73.39;100374.62;1627488;87;21014;-69
2022/08/13 00:15:16;;;;;;;8.48;5.55;;;;;;;22.32;73.38;100373.28;1664032;83;21088;-69
2022/08/13 00:17:44;;;;;;;5.80;5.33;;;;;;;22.29;73.31;100366.20;1646825;85;20979;-69
2022/08/13 00:20:11;;;;;;;6.45;5.80;;;;;;;22.25;73.38;100361.00;1654093;84;22064;-65
2022/08/13 00:22:38;;;;;;;5.05;4.50;;;;;;;22.23;73.57;100365.33;1639801;85;21870;-66
2022/08/13 00:25:08;;;;;;;6.72;6.12;;;;;;;22.20;73.31;100345.49;1615146;87;21005;-71
2022/08/13 00:27:34;;;;;;;5.78;5.30;;;;;;;22.20;73.40;100340.61;1680554;82;21124;-67
2022/08/13 00:30:02;;;;;;;6.28;5.40;;;;;;;22.20;73.14;100329.75;1719530;82;21030;-67
2022/08/13 00:32:31;;;;;;;5.97;5.45;;;;;;;22.19;73.29;100303.67;1677982;84;21065;-68
2022/08/13 00:35:00;;;;;;;6.12;5.65;;;;;;;22.20;73.22;100313.47;1687937;84;21038;-68
2022/08/13 00:37:27;;;;;;;4.95;4.60;;;;;;;22.22;73.03;100321.61;1681509;84;20965;-69
2022/08/13 00:39:54;;;;;;;6.30;4.90;;;;;;;22.23;72.41;100308.88;1711568;82;21117;-67
2022/08/13 00:42:23;;;;;;;5.33;4.83;;;;;;;22.22;72.31;100318.09;1724492;82;20928;-66
2022/08/13 00:44:49;;;;;;;6.28;5.75;;;;;;;22.21;72.15;100330.01;1703214;82;20997;-69
2022/08/13 00:50:02;;;;;;;6.00;5.40;;;;;;;22.18;72.20;100312.37;1658340;83;21216;-69
2022/08/13 00:52:34;;;;;;;5.08;4.33;;;;;;;22.17;72.44;100313.47;1652019;86;21609;-73
2022/08/13 00:55:06;;;;;;;5.75;5.17;;;;;;;22.15;72.25;100312.89;1644635;83;21919;-66
2022/08/13 00:57:32;;;;;;;7.30;4.80;;;;;;;22.14;72.36;100312.63;1652906;86;21077;-68
2022/08/13 01:00:01;;;;;;;4.87;4.58;;;;;;;22.10;72.37;100316.97;1651392;83;21292;-69
2022/08/13 01:02:28;;;;;;;5.05;4.67;;;;;;;22.06;72.67;100314.51;1610783;86;21066;-71
2022/08/13 01:04:54;;;;;;;4.62;4.35;;;;;;;22.01;72.90;100303.62;1624639;87;20987;-67
2022/08/13 01:07:22;;;;;;;4.53;4.12;;;;;;;21.95;73.09;100306.31;1664084;84;21105;-68
2022/08/13 01:09:48;;;;;;;5.20;4.45;;;;;;;21.91;73.20;100307.92;1675264;84;21183;-66
2022/08/13 01:12:16;;;;;;;6.72;4.80;;;;;;;21.87;73.47;100300.56;1642889;85;21636;-67
2022/08/13 01:14:43;;;;;;;5.70;4.85;;;;;;;21.83;73.62;100303.53;1651418;84;21145;-69
2022/08/13 01:17:12;;;;;;;5.55;4.30;;;;;;;21.79;73.78;100307.31;1649881;86;21507;-68
2022/08/13 01:19:42;;;;;;;4.17;3.90;;;;;;;21.75;73.81;100300.78;1650412;85;20987;-69
2022/08/13 01:22:06;;;;;;;5.00;4.53;;;;;;;21.72;74.05;100305.40;1693450;83;21147;-69
2022/08/13 01:24:32;;;;;;;5.42;4.58;;;;;;;21.68;74.04;100301.55;1673893;84;20965;-66
2022/08/13 01:26:58;;;;;;;5.03;4.60;;;;;;;21.66;74.14;100306.42;1673608;84;21059;-66
2022/08/13 01:29:25;;;;;;;5.35;4.97;;;;;;;21.63;74.41;100298.83;1664306;83;21070;-66
2022/08/13 01:31:54;;;;;;;5.60;5.12;;;;;;;21.60;74.58;100304.77;1702736;82;21072;-69
2022/08/13 01:34:22;;;;;;;5.50;4.83;;;;;;;21.57;74.68;100313.72;1666619;82;21534;-73
2022/08/13 01:36:49;;;;;;;4.58;4.37;;;;;;;21.56;74.87;100320.20;1648153;86;20987;-68
2022/08/13 01:39:16;;;;;;;5.42;4.97;;;;;;;21.55;74.85;100315.06;1644005;86;21001;-71
2022/08/13 01:41:42;;;;;;;4.67;4.37;;;;;;;21.53;74.92;100312.61;1639971;82;21957;-70
2022/08/13 01:44:08;;;;;;;5.40;4.25;;;;;;;21.52;75.07;100315.03;1602329;87;20994;-69
2022/08/13 01:52:09;;;;;;;6.75;4.90;;;;;;;21.43;75.20;100296.23;1638300;86;20174;-67
2022/08/13 01:54:37;;;;;;;6.15;4.40;;;;;;;21.33;75.71;100294.81;1634898;85;21134;-69
2022/08/13 01:57:08;;;;;;;6.33;4.45;;;;;;;21.32;75.88;100295.88;1606235;88;21059;-69
2022/08/13 02:05:31;;;;;;;8.60;4.80;;;;;;;21.27;76.29;100302.64;1575558;89;21110;-67
2022/08/13 02:08:00;;;;;;;5.33;4.83;;;;;;;21.22;76.53;100293.11;1550831;91;21009;-67
2022/08/13 02:10:26;;;;;;;5.30;4.87;;;;;;;21.18;76.66;100304.46;1596184;85;21081;-67
2022/08/13 02:12:53;;;;;;;5.45;5.05;;;;;;;20.84;76.75;100255.16;1596199;86;21055;-70
2022/08/13 02:15:19;;;;;;;5.08;4.62;;;;;;;21.13;76.73;100301.70;1575418;89;20992;-71
2022/08/13 02:17:45;;;;;;;6.87;4.83;;;;;;;21.11;77.00;100292.22;1633977;83;21546;-68
2022/08/13 02:20:17;;;;;;;4.78;4.33;;;;;;;21.11;77.01;100290.86;1633809;87;21101;-69
2022/08/13 02:25:33;;;;;;;4.70;4.25;;;;;;;21.09;77.08;100297.08;1634968;85;21609;-68
2022/08/13 02:28:00;;;;;;;4.58;4.17;;;;;;;21.07;76.74;100286.49;1610795;88;21049;-70
2022/08/13 02:30:29;;;;;;;4.65;4.33;;;;;;;21.06;76.74;100278.09;1638627;86;22136;-67
2022/08/13 02:32:58;;;;;;;4.75;4.03;;;;;;;21.07;76.53;100264.81;1605455;85;21184;-69
2022/08/13 02:35:24;;;;;;;5.53;3.92;;;;;;;21.09;76.30;100274.85;1654805;85;20938;-68
2022/08/13 02:43:37;;;;;;;7.67;5.65;;;;;;;21.15;75.76;100258.09;1710451;82;21005;-69
2022/08/13 02:46:04;;;;;;;6.05;4.75;;;;;;;21.15;75.66;100257.58;1660253;82;21200;-67
2022/08/13 02:48:31;;;;;;;6.58;5.50;;;;;;;21.16;75.81;100251.61;1660589;85;20950;-71
2022/08/13 02:50:57;;;;;;;4.25;3.90;;;;;;;21.16;75.73;100251.61;1647251;85;21444;-71
2022/08/13 02:53:25;;;;;;;6.58;4.40;;;;;;;21.15;75.69;100245.89;1620022;82;21519;-70
2022/08/13 02:55:52;;;;;;;4.47;3.92;;;;;;;21.15;75.71;100261.64;1615271;85;21507;-69
2022/08/13 03:10:56;;;;;;;4.87;4.47;;;;;;;20.85;78.75;100239.20;1648029;85;21562;-72
2022/08/13 03:13:31;;;;;;;6.30;4.92;;;;;;;20.74;79.77;100246.42;1648275;86;21022;-72
2022/08/13 03:16:00;;;;;;;5.17;4.67;;;;;;;20.69;80.45;100240.95;1622725;85;21095;-70
2022/08/13 03:18:27;;;;;;;5.50;4.97;;;;;;;20.63;81.08;100252.81;1645452;85;20990;-70
2022/08/13 03:20:53;;;;;;;4.47;4.17;;;;;;;20.60;81.54;100250.61;1645695;84;21150;-70
2022/08/13 03:23:22;;;;;;;;;;;;;;;20.55;82.33;100255.94;1687516;83;20976;-69
2022/08/13 03:39:49;;;;;;;6.85;5.83;;;;;;;20.29;85.75;100273.84;1648081;86;21089;-68
2022/08/13 03:42:15;;;;;;;9.30;5.12;;;;;;;20.17;86.19;100268.55;1673051;84;20986;-67
2022/08/13 03:51:29;;;;;;;8.00;5.37;;;;;;;20.01;87.31;100264.33;1622843;81;21610;-68
2022/08/13 03:53:59;;;;;;;4.87;4.47;;;;;;;20.00;87.62;100260.00;1601586;88;21642;-65
2022/08/13 03:56:25;;;;;;;7.33;5.20;;;;;;;20.01;87.70;100257.56;1606884;83;21178;-73
2022/08/13 03:58:53;;;;;;;5.72;5.15;;;;;;;20.05;87.74;100263.83;1644056;85;21047;-67
2022/08/13 04:01:20;;;;;;;5.08;4.58;;;;;;;20.08;87.79;100260.09;1640279;85;20946;-71
2022/08/13 04:03:46;;;;;;;7.60;5.75;;;;;;;20.11;87.41;100267.68;1621736;84;21697;-67
2022/08/13 04:06:19;;;;;;;6.28;5.10;;;;;;;20.14;87.47;100271.78;1604407;88;20943;-70
2022/08/13 04:08:48;;;;;;;5.65;5.10;;;;;;;20.17;87.50;100282.08;1587417;88;21146;-68
2022/08/13 04:14:43;;;;;;;6.47;5.90;;;;;;;20.20;87.67;100302.70;1568420;89;21785;-69
2022/08/13 04:17:11;;;;;;;7.80;5.50;;;;;;;20.19;87.90;100317.83;1554576;90;21138;-71
2022/08/13 04:20:02;;;;;;;8.53;6.12;;;;;;;20.19;88.58;100340.31;1623135;84;21172;31
2022/08/13 04:29:02;;;;;;;9.78;6.45;;;;;;;19.95;92.35;100366.78;1656976;84;21080;-70
2022/08/13 04:31:29;;;;;;;7.90;6.45;;;;;;;19.66;94.43;100353.89;1650651;85;21532;-69
2022/08/13 04:34:18;;;;;;;7.95;6.72;;;;;;;19.40;96.33;100348.13;1591693;84;20990;31
2022/08/13 04:36:44;;;;;;;9.13;7.92;;;;;;;19.16;98.06;100341.25;1632891;86;20970;-70
2022/08/13 04:39:10;;;;;;;;;;;;;;;18.95;100.00;100338.70;1690971;82;21152;-69
2022/08/13 04:48:49;;;;;;;10.72;8.15;;;;;;;18.54;100.00;100323.11;1644859;86;21042;-71
2022/08/13 04:51:15;;;;;;;9.00;8.10;;;;;;;18.38;100.00;100305.80;1642451;85;21050;-70
2022/08/13 04:53:41;;;;;;;12.43;8.78;;;;;;;18.50;100.00;100309.28;1650590;86;21021;-70
2022/08/13 04:56:07;;;;;;;9.50;8.48;;;;;;;18.52;100.00;100304.45;1649758;82;20978;-71
2022/08/13 04:58:34;;;;;;;;;;;;;;;18.55;100.00;100311.23;1664364;85;20986;-70
2022/08/13 05:01:09;;;;;;;10.60;8.35;;;;;;;18.56;100.00;100302.91;1660098;83;20146;-70
2022/08/13 05:03:39;;;;;;;10.03;9.10;;;;;;;18.54;100.00;100305.03;1679684;82;21084;-72
2022/08/13 05:06:07;;;;;;;9.83;8.93;;;;;;;18.57;100.00;100299.67;1697305;83;21446;-71
2022/08/13 05:08:34;;;;;;;13.15;10.35;;;;;;;18.64;100.00;100305.73;1663410;82;21148;-72
2022/08/13 05:11:01;;;;;;;12.70;8.93;;;;;;;18.69;100.00;100299.09;1629532;87;20998;-72
2022/08/13 05:13:35;;;;;;;13.00;8.75;;;;;;;18.76;100.00;100301.63;1642920;84;20989;-71
2022/08/13 05:16:06;;;;;;;9.58;8.60;;;;;;;18.81;100.00;100295.81;1697813;81;21716;-71
2022/08/13 05:18:37;;;;;;;9.15;8.35;;;;;;;18.86;100.00;100293.20;1682519;83;21011;-71
2022/08/13 05:21:08;;;;;;;13.00;9.43;;;;;;;18.92;100.00;100299.52;1687330;81;21145;-71
2022/08/13 05:23:39;;;;;;;9.80;8.80;;;;;;;18.95;100.00;100290.93;1674097;83;21960;-72
2022/08/13 05:26:06;;;;;;;9.78;8.83;;;;;;;18.99;100.00;100281.81;1685464;81;21081;-71
2022/08/13 05:28:33;;;;;;;10.53;9.43;;;;;;;19.05;100.00;100284.87;1632227;86;21002;-71
2022/08/13 05:30:59;;;;;;;;;;;;;;;19.15;100.00;100277.45;1678552;83;21798;-70
2022/08/13 05:33:29;;;;;;;8.25;7.53;;;;;;;19.23;100.00;100275.67;1678040;83;20137;-73
2022/08/13 05:36:00;;;;;;;8.93;8.23;;;;;;;19.26;100.00;100276.00;1680922;83;21013;-74
2022/08/13 05:38:28;;;;;;;8.00;7.28;;;;;;;19.36;100.00;100265.88;1687144;83;21016;-72
2022/08/13 05:40:59;;;;;;;10.40;8.23;;;;;;;19.56;100.00;100258.59;1704503;82;21077;-73
2022/08/13 05:43:29;;;;;;;7.83;7.12;;;;;;;19.61;100.00;100257.86;1711276;82;21046;-73
2022/08/13 05:45:58;;;;;;;8.68;7.97;;;;;;;19.63;100.00;100255.72;1684066;82;21116;-76
2022/08/13 05:48:27;;;;;;;7.83;7.20;;;;;;;19.62;100.00;100260.28;1672806;84;21060;-72
2022/08/13 05:50:59;;;;;;;8.20;7.58;;;;;;;19.63;100.00;100264.64;1663906;84;21066;-69
2022/08/13 05:53:28;;;;;;;11.43;8.20;;;;;;;19.70;100.00;100269.03;1676757;84;21117;-70
2022/08/13 05:55:54;;;;;;;10.28;9.38;;;;;;;19.79;100.00;100267.57;1684863;83;20974;-70
2022/08/13 05:58:23;;;;;;;10.20;8.98;;;;;;;19.86;100.00;100266.05;1693850;83;20973;-72
2022/08/13 06:03:35;;;;;;;10.70;9.15;;;;;;;20.03;100.00;100266.23;1656063;84;21093;-72
2022/08/13 06:06:06;;;;;;;9.78;8.88;;;;;;;20.16;100.00;100266.94;1687434;84;21016;-73
2022/08/13 06:08:40;;;;;;;8.78;7.97;;;;;;;20.23;100.00;100271.08;1678532;84;20992;-69
2022/08/13 06:11:16;;;;;;;8.85;8.05;;;;;;;19.96;100.00;100210.70;1675273;84;20985;-73
2022/08/13 06:13:46;;;;;;;9.80;8.90;;;;;;;20.01;100.00;100216.98;1696476;82;21168;-70
2022/08/13 06:16:16;;;;;;;8.78;7.92;;;;;;;20.31;100.00;100277.11;1705669;83;21819;-72
2022/08/13 06:18:43;;;;;;;8.70;7.87;;;;;;;20.26;100.00;100262.97;1704590;83;21081;-74
2022/08/13 06:21:13;;;;;;;9.45;8.53;;;;;;;20.25;100.00;100268.63;1714861;80;21064;-71
2022/08/13 06:23:42;;;;;;;10.10;9.03;;;;;;;20.26;100.00;100275.16;1722975;82;20959;-72
2022/08/13 06:26:12;;;;;;;10.15;9.18;;;;;;;20.29;100.00;100273.84;1719229;82;21074;-74
2022/08/13 06:28:44;;;;;;;8.68;7.85;;;;;;;20.33;100.00;100266.30;1685370;83;21042;-73
2022/08/13 06:31:13;;;;;;;8.95;8.33;;;;;;;20.42;100.00;100265.32;1646886;85;21019;-74
2022/08/13 06:33:38;;;;;;;9.40;8.60;;;;;;;20.48;100.00;100271.05;1669507;83;21044;-73
2022/08/13 06:36:10;;;;;;;9.25;8.45;;;;;;;20.54;100.00;100270.58;1723059;81;21069;-70
2022/08/13 06:38:48;;;;;;;8.98;8.10;;;;;;;20.62;100.00;100266.06;1728454;81;21600;-73
2022/08/13 06:41:18;;;;;;;8.83;8.05;;;;;;;20.69;100.00;100271.28;1713409;81;21128;-73
2022/08/13 06:43:49;;;;;;;9.83;8.20;;;;;;;20.74;100.00;100276.21;1691734;83;21034;-74
2022/08/13 06:46:22;;;;;;;9.93;8.98;;;;;;;20.82;99.86;100272.21;1673131;84;21077;-73
2022/08/13 06:48:49;;;;;;;10.28;8.60;;;;;;;20.95;100.00;100273.67;1671122;84;21009;-74
2022/08/13 06:51:15;;;;;;;9.10;8.13;;;;;;;21.25;100.00;100271.73;1683409;84;20966;-73
2022/08/13 06:53:44;;;;;;;8.65;7.90;;;;;;;21.44;99.78;100267.24;1659630;83;21137;-72
2022/08/13 06:56:23;;;;;;;9.10;8.40;;;;;;;21.61;97.21;100276.59;1672967;83;20961;-72
2022/08/13 06:58:53;;;;;;;8.18;7.60;;;;;;;21.69;96.98;100271.45;1692996;83;21171;-73
2022/08/13 07:01:24;;;;;;;8.50;7.75;;;;;;;21.73;95.55;100271.75;1690730;83;21506;-72
2022/08/13 07:03:51;;;;;;;8.48;7.67;;;;;;;21.72;93.53;100270.13;1655435;84;21108;-73
2022/08/13 07:06:22;;;;;;;7.95;7.22;;;;;;;21.66;93.41;100267.09;1631836;86;21842;-74
2022/08/13 07:08:48;;;;;;;9.68;8.18;;;;;;;21.56;93.54;100257.83;1668832;82;21140;-73
2022/08/13 07:11:23;;;;;;;9.48;8.48;;;;;;;21.48;94.35;100277.31;1672444;83;20957;-73
2022/08/13 07:13:59;;;;;;;8.60;8.00;;;;;;;21.44;94.24;100270.79;1658584;82;21187;-73
2022/08/13 07:16:33;;;;;;;11.37;9.10;;;;;;;21.43;95.34;100258.27;1643944;85;21046;-74
2022/08/13 07:19:02;;;;;;;10.10;9.10;;;;;;;21.44;95.62;100255.04;1645707;83;21359;-73
2022/08/13 07:21:30;;;;;;;9.53;8.58;;;;;;;21.46;95.80;100246.94;1657830;85;20969;-74
2022/08/13 07:24:02;;;;;;;8.98;8.20;;;;;;;21.51;95.75;100241.55;1655356;84;21075;-73
2022/08/13 07:26:33;;;;;;;9.68;8.73;;;;;;;21.61;95.70;100248.11;1692606;82;21546;-74
2022/08/13 07:29:03;;;;;;;10.18;9.15;;;;;;;21.66;94.99;100247.59;1705006;82;21083;-72
2022/08/13 07:31:33;;;;;;;8.98;8.15;;;;;;;21.68;95.15;100255.44;1704036;82;20939;-73
2022/08/13 07:34:32;;;;;;;10.63;9.58;;;;;;;21.66;94.36;100253.53;1702815;81;21074;31
2022/08/13 07:36:59;;;;;;;9.68;8.90;;;;;;;21.61;94.88;100244.04;1642580;86;21606;-73
2022/08/13 07:39:26;;;;;;;11.15;10.08;;;;;;;21.54;95.43;100270.03;1642409;86;21054;-74
2022/08/13 07:41:54;;;;;;;9.75;8.95;;;;;;;21.47;95.94;100267.53;1692063;82;21051;-74
2022/08/13 07:44:23;;;;;;;11.53;10.45;;;;;;;21.43;96.29;100285.38;1715854;82;21039;-74
2022/08/13 07:46:52;;;;;;;9.38;8.58;;;;;;;21.43;96.76;100296.23;1705421;82;21154;-74
2022/08/13 07:49:20;;;;;;;12.65;9.78;;;;;;;21.43;95.78;100307.08;1706654;82;21529;-74
2022/08/13 07:54:26;;;;;;;10.05;9.23;;;;;;;21.42;96.54;100295.13;1659232;86;21001;-73
2022/08/13 07:56:53;;;;;;;11.85;9.75;;;;;;;21.41;96.65;100298.39;1644689;86;21076;-74
2022/08/13 07:59:20;;;;;;;10.28;9.33;;;;;;;21.39;97.28;100296.48;1702341;82;21060;-78
2022/08/13 08:01:50;;;;;;;10.95;9.98;;;;;;;21.32;98.46;100262.84;1730534;81;21856;-77
2022/08/13 08:04:18;;;;;;;11.22;10.18;;;;;;;21.19;99.75;100262.75;1703518;82;21968;-75
2022/08/13 08:06:47;;;;;;;12.60;10.65;;;;;;;20.99;100.00;100249.05;1699339;84;20973;-76
2022/08/13 08:09:20;;;;;;;17.55;12.20;;;;;;;20.86;100.00;100250.84;1667539;86;21050;-74
2022/08/13 08:14:33;;;;;;;12.40;11.45;;;;;;;20.66;100.00;100250.93;1699181;84;21125;-73
2022/08/13 08:17:01;;;;;;;13.05;11.75;;;;;;;20.56;100.00;100257.59;1649759;85;21065;-74
2022/08/13 08:19:30;;;;;;;14.10;12.28;;;;;;;20.49;100.00;100247.50;1649180;85;20953;-75
2022/08/13 08:21:59;;;;;;;11.57;10.43;;;;;;;20.45;100.00;100240.97;1700814;81;21115;-76
2022/08/13 08:24:28;;;;;;;11.30;10.20;;;;;;;20.43;100.00;100234.45;1687862;83;20967;-74
2022/08/13 08:26:57;;;;;;;12.10;10.78;;;;;;;20.43;100.00;100233.91;1690864;83;20995;-74
2022/08/13 08:29:23;;;;;;;15.55;11.93;;;;;;;20.45;100.00;100232.84;1695312;82;21053;-75
2022/08/13 08:31:50;;;;;;;;;;;;;;;20.48;100.00;100226.39;1673520;84;21921;-75
2022/08/13 08:34:19;;;;;;;12.40;11.40;;;;;;;20.56;100.00;100231.32;1667266;84;20127;-75
2022/08/13 08:36:45;;;;;;;12.58;11.45;;;;;;;20.61;100.00;100230.60;1660064;83;21080;-75
2022/08/13 08:44:44;;;;;;;13.53;12.07;;;;;;;20.92;100.00;100240.31;1681666;83;20961;-76
2022/08/13 08:47:11;;;;;;;11.60;10.55;;;;;;;21.02;100.00;100240.41;1693276;84;20970;-75
2022/08/13 08:49:39;;;;;;;11.15;10.20;;;;;;;21.08;100.00;100236.66;1695002;84;20946;-76
2022/08/13 08:52:06;;;;;;;11.95;10.85;;;;;;;21.12;100.00;100237.75;1720424;82;21048;-74
2022/08/13 08:54:33;;;;;;;12.07;11.10;;;;;;;21.16;100.00;100234.80;1686662;83;20987;-75
2022/08/13 08:57:01;;;;;;;12.25;11.25;;;;;;;21.23;100.00;100239.16;1677039;82;21081;-77
2022/08/13 08:59:32;;;;;;;12.18;10.90;;;;;;;21.29;100.00;100236.78;1653383;86;21487;-75
2022/08/13 09:01:59;;;;;;;11.70;10.50;;;;;;;21.36;100.00;100240.05;1656496;84;21153;-75
2022/08/13 09:04:28;;;;;;;11.88;10.80;;;;;;;21.45;100.00;100237.16;1687478;84;21993;-75
2022/08/13 09:06:57;;;;;;;15.90;11.73;;;;;;;21.57;100.00;100232.35;1670609;84;21066;-76
2022/08/13 09:09:26;;;;;;;12.23;10.05;;;;;;;21.74;100.00;100227.28;1636557;85;21176;-76
2022/08/13 09:11:55;;;;;;;12.07;10.43;;;;;;;21.93;100.00;100223.55;1631763;86;21054;-76
2022/08/13 09:14:32;;;;;;;13.15;12.07;;;;;;;22.07;100.00;100219.77;1644652;86;21005;-78
2022/08/13 09:23:46;;;;;;;14.40;12.35;;;;;;;22.40;100.00;100212.28;1543432;90;21095;-79
2022/08/13 09:26:15;;;;;;;13.32;12.15;;;;;;;22.60;100.00;100201.40;1540695;91;21616;-74
2022/08/13 09:28:42;;;;;;;14.05;10.48;;;;;;;22.72;100.00;100197.07;1601401;86;21098;-73
2022/08/13 09:31:10;;;;;;;12.20;11.10;;;;;;;22.82;100.00;100192.17;1620250;87;21026;-76
2022/08/13 09:33:42;;;;;;;12.03;11.00;;;;;;;22.88;99.88;100189.70;1601480;86;20955;-77
2022/08/13 09:36:12;;;;;;;12.70;11.33;;;;;;;22.94;98.80;100182.64;1659082;84;20973;-75
2022/08/13 09:38:39;;;;;;;12.82;11.63;;;;;;;23.01;97.83;100184.26;1642444;84;22015;-77
2022/08/13 09:41:15;;;;;;;13.00;11.75;;;;;;;23.06;98.32;100183.73;1617507;86;21106;-74
2022/08/13 09:43:43;;;;;;;11.18;10.10;;;;;;;23.14;97.65;100190.51;1657362;85;21063;-78
2022/08/13 09:49:41;;;;;;;11.50;10.45;;;;;;;23.29;93.98;100181.50;1576171;89;21174;-76
2022/08/13 09:52:07;;;;;;;11.85;10.82;;;;;;;23.33;92.28;100173.85;1580575;89;20987;-77
2022/08/13 09:54:34;;;;;;;11.83;10.63;;;;;;;23.38;92.30;100178.48;1641763;84;21085;-74
2022/08/13 09:57:01;;;;;;;13.18;9.48;;;;;;;23.44;91.01;100175.19;1614205;86;21025;-72
2022/08/13 09:59:29;;;;;;;12.13;9.75;;;;;;;23.49;88.75;100171.91;1650490;85;21542;-78
2022/08/13 10:04:33;;;;;;;11.03;9.70;;;;;;;23.64;87.98;100168.83;1644033;82;21108;-75
2022/08/13 10:09:49;;;;;;;10.13;9.33;;;;;;;23.86;87.02;100176.09;1669216;82;23358;-74
2022/08/13 10:12:18;;;;;;;11.57;8.28;;;;;;;23.99;84.34;100163.77;1644132;85;21002;-74
2022/08/13 10:33:16;;;;;;;8.55;7.75;;;;;;;25.02;74.83;100143.30;1644976;83;21073;-72
2022/08/13 10:35:52;;;;;;;9.25;8.48;;;;;;;25.12;75.25;100134.19;1697059;83;20950;-67
2022/08/13 10:49:39;;;;;;;8.83;8.13;;;;;;;25.48;72.17;100124.23;1647576;82;21167;31
2022/08/13 10:55:29;;;;;;;9.98;8.60;;;;;;;25.68;70.25;100123.15;1629643;84;21193;31
2022/08/13 11:01:40;;;;;;;9.10;8.20;;;;;;;25.91;69.63;100126.09;1654060;82;21568;31
2022/08/13 11:04:06;;;;;;;9.90;7.80;;;;;;;26.03;67.02;100122.37;1624951;87;21530;-77
2022/08/13 11:07:10;;;;;;;9.08;7.40;;;;;;;26.12;65.42;100126.62;1616937;85;21156;31
2022/08/13 11:09:33;;;;;;;11.08;7.15;;;;;;;26.19;65.42;100121.59;1622822;83;21052;-74
2022/08/13 11:11:59;;;;;;;15.05;7.47;;;;;;;26.22;64.66;100120.45;1625277;85;21006;-73
2022/08/13 11:33:41;;;;;;;8.25;6.87;;;;;;;26.45;62.29;100119.78;1681890;82;21128;31
2022/08/13 11:38:56;;;;;;;7.17;6.70;;;;;;;26.52;61.68;100121.05;1641912;81;21997;-73
2022/08/13 11:41:23;;;;;;;7.50;6.90;;;;;;;26.56;61.52;100119.33;1666051;85;20985;-73
2022/08/13 12:02:20;;;;;;;10.47;6.67;;;;;;;27.50;57.17;100091.80;1726249;76;21173;-74
2022/08/13 12:04:46;;;;;;;7.72;6.90;;;;;;;27.32;57.57;100096.31;1713921;83;21083;-70
2022/08/13 12:07:13;;;;;;;9.33;5.87;;;;;;;27.18;57.68;100101.75;1710749;83;21059;-72
2022/08/13 12:15:44;;;;;;;7.87;6.92;;;;;;;26.88;58.12;100078.03;1686210;81;22014;-73
2022/08/13 12:18:13;;;;;;;6.85;6.33;;;;;;;26.82;58.35;100081.15;1713115;81;21137;-70
2022/08/13 12:20:39;;;;;;;9.60;6.95;;;;;;;26.76;58.58;100096.84;1730814;81;20964;-68
2022/08/13 12:23:07;;;;;;;7.75;6.90;;;;;;;26.74;58.66;100075.27;1703367;80;21051;-67
2022/08/13 12:25:33;;;;;;;7.00;6.37;;;;;;;26.72;58.74;100095.83;1654402;86;22035;-72
2022/08/13 12:28:19;;;;;;;7.62;6.87;;;;;;;26.66;58.95;100084.19;1667628;85;21637;-71
2022/08/13 12:30:48;;;;;;;7.03;6.43;;;;;;;26.63;58.90;100075.78;1738331;80;21034;-73
2022/08/13 12:33:16;;;;;;;7.53;6.97;;;;;;;26.61;59.14;100078.80;1753496;80;21897;-69
2022/08/13 12:35:42;;;;;;;8.45;7.67;;;;;;;26.59;59.13;100072.27;1777686;80;21514;-67
2022/08/13 12:38:12;;;;;;;9.20;7.15;;;;;;;26.58;59.51;100067.90;1782311;80;20919;-70
2022/08/13 12:40:41;;;;;;;7.40;6.70;;;;;;;26.59;60.14;100080.47;1661532;79;21101;-71
2022/08/13 12:43:08;;;;;;;7.97;7.17;;;;;;;26.59;59.41;100070.91;1624685;86;21006;-68
2022/08/13 12:45:36;;;;;;;11.15;6.60;;;;;;;26.58;59.20;100074.73;1637586;84;21130;-69
2022/08/13 12:48:13;;;;;;;7.35;6.70;;;;;;;26.57;58.50;100082.66;1674428;85;20973;-72
2022/08/13 12:50:42;;;;;;;11.63;7.28;;;;;;;26.56;58.70;100071.50;1698310;82;21107;-71
2022/08/13 12:53:09;;;;;;;8.28;6.30;;;;;;;26.54;58.74;100056.48;1716577;82;20976;-67
2022/08/13 12:58:26;;;;;;;8.75;6.90;;;;;;;26.56;59.65;100056.99;1587121;89;21027;-68
2022/08/13 13:00:55;;;;;;;6.60;6.03;;;;;;;26.59;59.30;100049.56;1658314;83;21056;-69
2022/08/13 13:03:23;;;;;;;8.25;7.60;;;;;;;26.62;59.20;100051.73;1743007;81;21850;-69
2022/08/13 13:05:54;;;;;;;9.25;7.17;;;;;;;26.63;59.54;100057.44;1746573;81;21005;-69
2022/08/13 13:08:30;;;;;;;8.75;7.85;;;;;;;26.69;59.58;100051.32;1680803;81;22123;-68
2022/08/13 13:11:03;;;;;;;7.70;7.20;;;;;;;26.74;59.80;100049.86;1660353;85;20972;-73
2022/08/13 13:13:33;;;;;;;9.05;7.40;;;;;;;26.78;59.64;100056.34;1672683;83;21191;-72
2022/08/13 13:15:59;;;;;;;8.35;7.55;;;;;;;26.83;59.02;100066.38;1669063;85;20977;-68
2022/08/13 13:18:28;;;;;;;12.15;7.03;;;;;;;26.84;58.86;100057.84;1666854;85;20984;-70
2022/08/13 13:20:55;;;;;;;7.97;7.25;;;;;;;26.86;59.06;100054.28;1701427;81;21613;-71
2022/08/13 13:23:26;;;;;;;7.90;7.30;;;;;;;26.88;58.29;100062.16;1697305;83;21017;-70
2022/08/13 13:25:54;;;;;;;10.43;7.12;;;;;;;26.89;58.00;100055.02;1711516;83;20970;-68
2022/08/13 13:28:25;;;;;;;8.10;7.28;;;;;;;26.88;58.30;100038.38;1711717;83;21049;-72
2022/08/13 13:30:53;;;;;;;7.50;6.92;;;;;;;26.90;58.46;100052.55;1707697;82;21112;-72
2022/08/13 13:33:21;;;;;;;7.75;6.97;;;;;;;26.91;58.39;100046.52;1672855;83;21485;-72
2022/08/13 13:35:51;;;;;;;7.83;7.17;;;;;;;26.93;58.85;100035.52;1667387;83;21713;-71
2022/08/13 13:38:20;;;;;;;8.88;7.85;;;;;;;26.98;58.84;100044.19;1669186;84;20989;-68
2022/08/13 13:40:50;;;;;;;8.28;7.53;;;;;;;27.01;58.75;100027.15;1629383;85;21751;-69
2022/08/13 13:43:20;;;;;;;7.90;7.30;;;;;;;27.07;59.05;100044.27;1622390;87;20978;-73
2022/08/13 13:45:46;;;;;;;9.63;7.37;;;;;;;27.10;58.79;100026.68;1599841;85;21533;-69
2022/08/13 13:48:24;;;;;;;7.25;6.75;;;;;;;27.14;58.92;100036.45;1595756;88;21013;-71
2022/08/13 13:50:57;;;;;;;8.25;7.22;;;;;;;27.19;58.75;100029.52;1596105;88;21040;-69
2022/08/13 13:53:26;;;;;;;8.83;7.95;;;;;;;27.24;58.91;100020.37;1582446;85;21100;-73
2022/08/13 13:55:54;;;;;;;8.00;7.30;;;;;;;27.26;58.63;100043.63;1625679;86;21060;-73
2022/08/13 13:58:22;;;;;;;10.58;6.83;;;;;;;27.31;58.17;100014.78;1638899;84;21057;-66
2022/08/13 14:00:50;;;;;;;9.88;7.10;;;;;;;27.32;57.87;100034.17;1653748;84;20991;-75
2022/08/13 14:03:17;;;;;;;10.23;7.15;;;;;;;27.33;57.80;100015.28;1694321;81;21062;-72
2022/08/13 14:05:44;;;;;;;9.63;7.00;;;;;;;27.34;58.12;100022.36;1704737;84;21040;-72
2022/08/13 14:08:11;;;;;;;7.85;6.65;;;;;;;27.35;58.30;100013.05;1697690;83;21004;-76
2022/08/13 14:10:38;;;;;;;7.35;6.70;;;;;;;27.36;58.46;100018.75;1706887;83;21565;-73
2022/08/13 14:13:06;;;;;;;7.28;6.78;;;;;;;27.38;58.67;100017.08;1717075;83;21451;-70
2022/08/13 14:15:33;;;;;;;9.75;7.53;;;;;;;27.38;58.91;100015.14;1715024;83;21526;-71
2022/08/13 14:18:07;;;;;;;8.93;8.00;;;;;;;27.41;59.31;100011.54;1697805;81;21580;-71
2022/08/13 14:20:35;;;;;;;8.23;7.45;;;;;;;27.44;59.79;100012.30;1682090;85;21052;-72
2022/08/13 14:25:51;;;;;;;7.83;7.03;;;;;;;27.48;60.14;100010.55;1708181;80;21056;-75
2022/08/13 14:28:18;;;;;;;8.53;7.58;;;;;;;27.18;59.79;99964.95;1718737;82;21086;-76
2022/08/13 14:30:47;;;;;;;8.18;7.58;;;;;;;27.48;60.15;100008.66;1682780;80;21564;-72
2022/08/13 14:33:14;;;;;;;8.95;8.03;;;;;;;27.47;60.17;100013.86;1685049;84;21808;-73
2022/08/13 14:35:42;;;;;;;9.00;7.05;;;;;;;27.46;60.20;100019.07;1697813;81;22018;-72
2022/08/13 14:38:14;;;;;;;7.25;6.72;;;;;;;27.45;60.22;100011.20;1706745;82;20901;-74
2022/08/13 14:40:41;;;;;;;8.03;7.15;;;;;;;27.43;60.41;100013.44;1708358;81;21150;-71
2022/08/13 14:43:09;;;;;;;8.63;7.78;;;;;;;27.41;60.33;100001.95;1708822;83;20940;-71
2022/08/13 14:45:44;;;;;;;9.43;7.53;;;;;;;27.39;60.55;99999.55;1693713;83;20962;-71